Jacksonville Naval Air Station
KNIP : now visible

Airfield :











YOU CAN JOIN US ON...

 
LOGIN :

Register | Disclaimer

   EN    FR    IT 

 









Legend :    VFR   Marginal VFR   IFR   Intensive IFR   Very Intensive IFR
Visi :
Ceiling :
>= 8 km
>= 3000ft
5 to 8 km
1000 to 3000 ft
1500m to 5 km
500 to 1000 ft
800 to 1500m
200 to 500 ft
< 800m
< 200 ft
Symbols :   Thunderstorms  Fog  Heavy snow  Heavy precipitations  Wind > 20 kt






- Airport Elevation : 21 ft


KNIP - Jacksonville Naval Air Station

CURRENT METAR :
  • 271353Z 00000KT 10SM FEW035 SCT180 SCT250 21/18 A3014 RMK AO2 SLP203 T02060178

EXPIRED METARs :
  • 271253Z 20003KT 10SM BKN180 BKN250 19/18 A3014 RMK AO2 SLP201 T01890178
  • 271153Z 20003KT 10SM SCT190 BKN250 18/16 A3013 RMK AO2 SLP199 T01780161 10200 20178 53013

TAF AMD TAF KNIP
Valid from the 27 at 09:00 until the 28 at 07:00 UTC


2709/2807 VRB04KT 9999 SCT010 BKN180 BKN250 QNH3009INS
FM271700 VRB05KT 9999 SCT025 SCT060 BKN150 BKN250 QNH3002INS
FM272000 12008KT 9999 VCSH SCT035 BKN060 BKN150 BKN250 521809 522709 523609 QNH3002INS
FM280000 VRB04KT 9999 SCT020 BKN100 OVC200 521809 522709 523609 QNH3000INS T17/2711Z T28/2720Z AMD 0945 FN20061
KZJX FIR / North America



MET'MAP, your aeronautical weather chart ! - Copyright ORBIFLY December 2007 - Disclaimer

ORBIFLY MET'MAP TEAM :

Programming & Development : Alexandra Zaïnal
Concept & original design : Baudouin d'Aumeries
Assistance for programming : Marc-Olivier Méhu
Technical & hardware support : Manuel Goepfert

Contact : metmap@orbifly.com




SOURCES & CREDITS :

   NOAA       Earth
Advisory